Time;durP1;ratioP1;P1;durP2;ratioP2;P2;SDS_P1;SDS_P2;PMS_P1;PMS_P2;Temp;Humidity;BMP_temperature;BMP_pressure;BME280_temperature;BME280_humidity;BME280_pressure;Samples;Min_cycle;Max_cycle;Signal;HPM_P1;HPM_P2
2022/09/09 00:01:00;;;;;;;8.50;3.63;;;;;;;17.75;89.06;100796.88;5027444;28;20027;-64
2022/09/09 00:03:38;;;;;;;6.65;2.88;;;;;;;17.68;89.43;100796.41;5027364;28;20030;-67
2022/09/09 00:06:09;;;;;;;8.27;3.17;;;;;;;17.71;89.70;100795.34;5026451;28;20026;-63
2022/09/09 00:08:49;;;;;;;7.63;3.45;;;;;;;17.69;90.06;100802.59;5027087;28;20022;-67
2022/09/09 00:11:21;;;;;;;5.30;3.13;;;;;;;17.70;89.72;100808.78;5028368;28;20025;-68
2022/09/09 00:13:48;;;;;;;7.47;4.07;;;;;;;17.68;89.60;100807.06;5025914;28;20040;-67
2022/09/09 00:16:23;;;;;;;6.28;4.03;;;;;;;17.65;90.16;100793.94;5026705;28;20060;-67
2022/09/09 00:19:23;;;;;;;10.20;4.18;;;;;;;17.64;90.47;100794.88;5025208;28;20716;-67
2022/09/09 00:21:57;;;;;;;8.55;4.28;;;;;;;17.59;90.70;100783.69;5024888;28;20021;-66
2022/09/09 00:24:49;;;;;;;9.40;4.43;;;;;;;17.65;90.43;100785.09;5027808;28;20041;-65
2022/09/09 00:27:19;;;;;;;12.88;5.30;;;;;;;17.64;90.50;100776.22;5026136;28;20116;-62
2022/09/09 00:29:54;;;;;;;11.25;5.70;;;;;;;17.57;90.98;100777.59;5028270;28;20061;-69
2022/09/09 00:32:20;;;;;;;10.13;4.78;;;;;;;17.54;91.02;100777.78;5025799;28;20026;-63
2022/09/09 00:34:52;;;;;;;10.57;5.55;;;;;;;17.50;90.91;100770.94;5057349;28;20047;-69
2022/09/09 00:37:19;;;;;;;10.23;5.45;;;;;;;17.57;90.86;100772.25;5049437;28;20482;-69
2022/09/09 00:39:51;;;;;;;7.40;5.20;;;;;;;17.49;91.64;100772.75;5049839;28;20032;-69
2022/09/09 00:42:24;;;;;;;14.65;6.32;;;;;;;17.51;91.59;100772.66;5035979;28;20041;-67
2022/09/09 00:45:17;;;;;;;12.98;6.13;;;;;;;17.49;91.53;100774.59;5050732;28;20025;-68
2022/09/09 00:47:49;;;;;;;8.48;5.63;;;;;;;17.50;91.20;100760.31;5033732;28;20052;-68
2022/09/09 00:50:38;;;;;;;12.57;6.35;;;;;;;17.39;91.26;100779.63;5032260;28;20037;-68
2022/09/09 00:53:15;;;;;;;;;;;;;;;17.49;91.26;100766.59;5034548;28;20029;-70
2022/09/09 00:56:16;;;;;;;11.35;6.43;;;;;;;17.36;91.41;100769.16;5050957;28;19913;-67
2022/09/09 00:59:08;;;;;;;10.77;6.57;;;;;;;17.32;91.96;100771.19;5046303;28;20040;-65
2022/09/09 01:01:33;;;;;;;9.80;6.38;;;;;;;17.29;91.99;100771.38;5053108;28;20081;-64
2022/09/09 01:03:59;;;;;;;13.32;7.15;;;;;;;17.23;92.18;100775.28;5070831;28;20020;-65
2022/09/09 01:06:27;;;;;;;14.38;7.35;;;;;;;17.20;92.53;100764.84;5052189;28;20032;-67
2022/09/09 01:09:21;;;;;;;13.50;7.20;;;;;;;17.24;92.48;100771.66;5071690;28;20025;-64
2022/09/09 01:11:56;;;;;;;10.57;7.35;;;;;;;17.21;92.35;100773.66;5070081;28;20467;-68
2022/09/09 01:14:36;;;;;;;17.60;6.82;;;;;;;17.10;92.56;100769.88;5069791;28;20242;-63
2022/09/09 01:17:17;;;;;;;14.18;8.02;;;;;;;17.03;93.56;100773.84;5071073;28;20120;-68
2022/09/09 01:19:42;;;;;;;14.73;6.85;;;;;;;17.12;93.30;100765.31;5069775;28;20098;-68
2022/09/09 01:22:33;;;;;;;11.82;7.35;;;;;;;17.17;92.93;100760.56;5070413;28;20483;-63
2022/09/09 01:25:16;;;;;;;10.63;6.50;;;;;;;17.18;92.55;100751.63;5053049;28;20032;-68
2022/09/09 01:27:43;;;;;;;11.02;7.28;;;;;;;17.18;93.01;100754.28;5070347;28;20556;-64
2022/09/09 01:30:11;;;;;;;12.93;7.40;;;;;;;17.22;92.61;100762.91;5057498;28;20390;-68
2022/09/09 01:32:51;;;;;;;10.18;7.13;;;;;;;17.16;93.31;100748.19;5033459;28;20032;-68
2022/09/09 01:35:31;;;;;;;15.32;7.32;;;;;;;17.22;93.10;100746.09;5050804;28;20045;-69
2022/09/09 01:37:56;;;;;;;10.52;6.47;;;;;;;17.23;92.83;100742.47;5062196;28;20402;-69
2022/09/09 01:40:22;;;;;;;8.18;6.13;;;;;;;17.28;92.89;100737.72;5071746;28;20028;-68
2022/09/09 01:42:47;;;;;;;7.85;6.05;;;;;;;17.35;92.71;100744.38;5070140;28;20394;-67
2022/09/09 01:45:13;;;;;;;16.38;6.97;;;;;;;17.38;92.41;100738.84;5069705;28;20544;-69
2022/09/09 01:47:38;;;;;;;12.98;6.05;;;;;;;17.28;92.12;100740.38;5071182;28;20036;-68
2022/09/09 01:50:04;;;;;;;13.18;6.93;;;;;;;17.29;92.06;100736.75;5050689;28;20426;-70
2022/09/09 01:52:30;;;;;;;11.45;6.03;;;;;;;17.18;91.89;100735.66;5071092;28;20029;-72
2022/09/09 01:54:56;;;;;;;9.85;6.00;;;;;;;17.23;92.36;100732.69;5069191;28;20056;-69
2022/09/09 01:57:25;;;;;;;7.80;5.43;;;;;;;17.17;92.43;100738.41;5069920;28;20068;-70
2022/09/09 02:00:05;;;;;;;10.52;5.28;;;;;;;17.22;92.26;100733.63;5052893;28;20093;-66
2022/09/09 02:02:55;;;;;;;11.23;5.72;;;;;;;17.18;92.63;100735.66;5069905;28;20021;-68
2022/09/09 02:05:38;;;;;;;11.45;6.22;;;;;;;17.14;92.85;100734.13;5048106;28;20052;-68
2022/09/09 02:08:32;;;;;;;14.43;5.47;;;;;;;17.16;92.79;100726.88;5071577;28;20032;-68
2022/09/09 02:11:12;;;;;;;9.50;5.57;;;;;;;17.21;93.13;100725.72;5068003;28;20044;-70
2022/09/09 02:13:39;;;;;;;13.95;5.50;;;;;;;17.20;92.32;100732.03;5062205;28;20112;-70
2022/09/09 02:16:10;;;;;;;10.73;4.90;;;;;;;17.22;92.89;100722.97;5035261;28;20037;-68
2022/09/09 02:19:01;;;;;;;10.27;5.30;;;;;;;17.18;92.92;100724.13;5069333;28;20411;-68
2022/09/09 02:21:29;;;;;;;8.88;5.10;;;;;;;17.22;92.28;100719.47;5051414;28;20028;-67
2022/09/09 02:23:55;;;;;;;8.27;5.25;;;;;;;17.18;92.43;100713.47;5052875;28;20036;-68
2022/09/09 02:26:23;;;;;;;9.88;4.90;;;;;;;17.11;92.78;100718.34;5051858;28;20089;-69
2022/09/09 02:28:50;;;;;;;11.93;5.53;;;;;;;17.03;92.51;100709.94;5052609;28;20060;-68
2022/09/09 02:31:18;;;;;;;11.02;5.18;;;;;;;17.12;92.99;100711.19;5052422;28;20036;-69
2022/09/09 02:33:49;;;;;;;10.27;5.50;;;;;;;17.01;93.21;100710.06;5041759;28;20029;-68
2022/09/09 02:36:18;;;;;;;9.63;5.25;;;;;;;17.05;93.19;100708.94;5049635;28;20549;-70
2022/09/09 02:38:45;;;;;;;;;;;;;;;17.02;93.61;100703.78;5053123;28;20441;-68
2022/09/09 02:41:11;;;;;;;9.07;4.97;;;;;;;17.02;93.14;100703.78;5051555;28;20397;-67
2022/09/09 02:43:37;;;;;;;8.43;5.10;;;;;;;17.05;93.50;100698.28;5070250;28;20029;-69
2022/09/09 02:46:32;;;;;;;9.60;5.53;;;;;;;17.02;93.48;100694.94;5070706;28;20111;-68
2022/09/09 02:49:24;;;;;;;11.15;5.53;;;;;;;17.05;93.24;100684.09;5068033;28;20040;-67
2022/09/09 02:52:02;;;;;;;10.35;5.32;;;;;;;16.97;92.97;100681.06;5070032;28;20462;-64
2022/09/09 02:54:32;;;;;;;9.23;5.43;;;;;;;16.91;92.91;100691.16;5067909;28;20075;-68
2022/09/09 02:57:05;;;;;;;13.30;6.00;;;;;;;16.89;93.40;100692.22;5052618;28;20029;-66
2022/09/09 02:59:31;;;;;;;10.93;5.70;;;;;;;16.92;93.47;100687.53;5051275;28;20024;-67
2022/09/09 03:01:56;;;;;;;9.48;5.68;;;;;;;16.94;93.96;100684.78;5068929;28;20072;-67
2022/09/09 03:04:22;;;;;;;12.85;5.75;;;;;;;16.92;93.80;100687.53;5068838;28;20032;-67
2022/09/09 03:06:47;;;;;;;10.20;6.30;;;;;;;16.86;94.12;100690.59;5068718;28;20025;-68
2022/09/09 03:09:12;;;;;;;11.07;6.05;;;;;;;16.92;94.24;100682.22;5069625;28;20103;-65
2022/09/09 03:11:38;;;;;;;8.45;5.57;;;;;;;16.93;93.81;100688.41;5068615;28;20032;-63
2022/09/09 03:14:04;;;;;;;8.45;5.63;;;;;;;16.96;93.84;100684.69;5069845;28;20546;-69
2022/09/09 03:16:29;;;;;;;11.90;6.78;;;;;;;16.85;94.30;100691.53;5067929;28;20079;-65
2022/09/09 03:18:55;;;;;;;13.18;6.45;;;;;;;16.80;94.26;100688.34;5050708;28;20035;-66
2022/09/09 03:21:20;;;;;;;12.60;7.03;;;;;;;16.85;94.46;100690.69;5068862;28;20436;-70
2022/09/09 03:23:46;;;;;;;11.45;6.32;;;;;;;16.83;94.35;100688.16;5068305;28;20362;-64
2022/09/09 03:26:11;;;;;;;11.38;5.85;;;;;;;16.83;94.33;100687.28;5069695;28;20032;-67
2022/09/09 03:28:37;;;;;;;12.80;5.53;;;;;;;16.84;94.25;100688.97;5068877;28;20046;-69
2022/09/09 03:31:04;;;;;;;12.50;5.93;;;;;;;16.87;94.63;100680.81;5068588;28;20032;-68
2022/09/09 03:33:31;;;;;;;12.25;6.03;;;;;;;16.90;94.60;100689.47;5068406;28;20063;-67
2022/09/09 03:35:56;;;;;;;12.73;6.55;;;;;;;16.98;94.58;100688.13;5068642;28;20021;-68
2022/09/09 03:38:25;;;;;;;10.50;5.97;;;;;;;16.95;94.05;100696.28;5068080;28;20098;-67
2022/09/09 03:40:57;;;;;;;12.40;6.10;;;;;;;16.95;94.38;100682.97;5067066;28;20033;-69
2022/09/09 03:43:23;;;;;;;13.50;6.13;;;;;;;16.97;94.48;100683.72;5051036;28;20514;-68
2022/09/09 03:45:48;;;;;;;17.02;7.20;;;;;;;17.08;93.87;100678.63;5073058;28;20083;-69
2022/09/09 03:48:15;;;;;;;12.95;6.53;;;;;;;17.03;94.21;100678.00;5059173;28;20581;-63
2022/09/09 03:50:48;;;;;;;11.63;6.10;;;;;;;16.97;94.04;100679.25;5080137;28;20052;-67
2022/09/09 03:53:14;;;;;;;17.60;6.82;;;;;;;17.00;93.76;100683.53;5088791;28;20024;-64
2022/09/09 03:55:43;;;;;;;10.55;6.18;;;;;;;17.01;93.69;100679.94;5081761;28;20035;-66
2022/09/09 03:58:10;;;;;;;10.98;5.07;;;;;;;17.04;93.80;100680.59;5069734;28;20027;-66
2022/09/09 04:00:36;;;;;;;9.52;5.10;;;;;;;17.05;94.03;100676.13;5065006;28;20032;-70
2022/09/09 04:03:02;;;;;;;9.00;5.20;;;;;;;17.04;93.63;100669.94;5060332;28;20017;-70
2022/09/09 04:05:27;;;;;;;14.13;5.88;;;;;;;17.02;92.60;100671.00;5068164;28;20025;-65
2022/09/09 04:07:52;;;;;;;15.30;5.45;;;;;;;16.89;92.71;100663.78;5069032;28;20028;-70
2022/09/09 04:10:18;;;;;;;10.95;4.93;;;;;;;17.00;92.21;100663.09;5068357;28;20090;-70
2022/09/09 04:12:43;;;;;;;13.18;5.30;;;;;;;17.02;92.27;100663.00;5068123;28;20037;-71
2022/09/09 04:15:10;;;;;;;13.15;5.15;;;;;;;16.99;92.23;100657.88;5068906;28;20048;-62
2022/09/09 04:17:36;;;;;;;7.95;4.47;;;;;;;16.88;92.75;100659.41;5067524;28;20038;-73
2022/09/09 04:20:02;;;;;;;13.48;5.35;;;;;;;16.87;92.71;100652.41;5073849;28;20032;-73
2022/09/09 04:22:27;;;;;;;7.60;3.97;;;;;;;16.85;92.61;100656.09;5074026;28;20501;-70
2022/09/09 04:24:52;;;;;;;8.68;4.32;;;;;;;16.84;92.57;100651.72;5074238;28;20107;-71
2022/09/09 04:27:18;;;;;;;12.82;4.20;;;;;;;16.85;93.37;100648.09;5074518;28;20121;-71
2022/09/09 04:29:43;;;;;;;6.97;4.30;;;;;;;16.94;92.48;100647.53;5073777;28;20033;-67
2022/09/09 04:32:08;;;;;;;7.35;3.67;;;;;;;16.87;92.60;100647.06;5056379;28;20025;-67
2022/09/09 04:34:34;;;;;;;10.65;3.60;;;;;;;16.91;92.69;100655.69;5073245;28;20056;-74
2022/09/09 04:37:00;;;;;;;6.90;3.70;;;;;;;16.92;93.32;100649.44;5074616;28;20017;-70
2022/09/09 04:39:26;;;;;;;9.35;3.65;;;;;;;16.98;92.42;100643.69;5073474;28;20041;-71
2022/09/09 04:41:51;;;;;;;6.07;3.30;;;;;;;17.05;92.76;100644.19;5074414;28;20045;-72
2022/09/09 04:44:16;;;;;;;9.60;3.53;;;;;;;16.99;91.81;100644.56;5074307;28;20027;-73
2022/09/09 04:46:42;;;;;;;15.13;3.50;;;;;;;16.97;92.09;100646.47;5073997;28;20009;-64
2022/09/09 04:49:07;;;;;;;7.88;3.05;;;;;;;17.07;91.74;100644.97;5074023;28;20028;-72
2022/09/09 04:51:32;;;;;;;9.38;2.83;;;;;;;16.97;91.88;100647.31;5073715;28;20071;-72
2022/09/09 04:53:58;;;;;;;8.43;3.15;;;;;;;17.01;91.99;100632.88;5074004;28;20027;-73
2022/09/09 04:56:26;;;;;;;5.82;3.00;;;;;;;16.95;91.58;100635.09;5077208;28;20024;-72
2022/09/09 04:58:52;;;;;;;6.13;3.03;;;;;;;17.01;92.29;100632.03;5073945;28;20044;-73
2022/09/09 05:01:19;;;;;;;7.30;3.20;;;;;;;17.09;91.81;100634.19;5073632;28;20028;-73
2022/09/09 05:03:47;;;;;;;4.88;2.20;;;;;;;17.10;92.40;100642.09;5073452;28;20828;-71
2022/09/09 05:06:18;;;;;;;8.80;2.70;;;;;;;17.16;90.64;100632.88;5074477;28;20471;-63
2022/09/09 05:08:43;;;;;;;8.73;2.67;;;;;;;17.22;90.83;100636.94;5073430;28;20066;-68
2022/09/09 05:11:26;;;;;;;5.47;2.90;;;;;;;17.17;91.68;100638.09;5073912;28;20047;-62
2022/09/09 05:13:52;;;;;;;7.30;3.13;;;;;;;17.30;90.90;100629.28;5073670;28;20032;-71
2022/09/09 05:16:18;;;;;;;6.70;2.85;;;;;;;17.36;91.12;100626.22;5073661;28;20154;-71
2022/09/09 05:18:44;;;;;;;7.68;2.25;;;;;;;17.38;90.85;100621.66;5054999;28;20120;-66
2022/09/09 05:21:11;;;;;;;8.40;2.55;;;;;;;17.50;89.78;100627.97;5066718;28;20029;-72
2022/09/09 05:23:36;;;;;;;9.32;2.92;;;;;;;17.48;90.24;100627.22;5072470;28;20029;-73
2022/09/09 05:26:03;;;;;;;9.27;2.83;;;;;;;17.49;89.37;100631.59;5074102;28;20481;-72
2022/09/09 05:28:29;;;;;;;8.07;2.80;;;;;;;17.50;90.37;100637.78;5073768;28;20058;-72
2022/09/09 05:31:04;;;;;;;14.43;2.92;;;;;;;17.54;89.26;100625.94;5042819;28;20418;-71
2022/09/09 05:33:30;;;;;;;12.98;2.90;;;;;;;17.46;90.36;100621.13;5049731;28;20045;-75
2022/09/09 05:36:02;;;;;;;11.50;2.67;;;;;;;17.63;89.94;100617.34;5050275;28;20036;-65
2022/09/09 05:38:28;;;;;;;6.25;2.50;;;;;;;17.68;89.49;100615.25;5050397;28;20075;-71
2022/09/09 05:40:55;;;;;;;4.60;2.33;;;;;;;17.76;88.84;100616.53;5040917;28;20486;-71
2022/09/09 05:43:21;;;;;;;4.75;2.40;;;;;;;17.73;88.92;100617.56;5070196;28;20036;-71
2022/09/09 05:45:47;;;;;;;7.88;2.28;;;;;;;17.92;88.93;100627.84;5069418;28;20013;-62
2022/09/09 05:48:14;;;;;;;9.00;2.45;;;;;;;18.08;88.06;100616.09;5076759;28;20089;-71
2022/09/09 05:50:40;;;;;;;8.68;2.65;;;;;;;18.15;87.91;100620.09;5085335;28;20112;-71
2022/09/09 05:53:06;;;;;;;6.35;2.50;;;;;;;18.31;87.05;100627.03;5090387;28;20115;-71
2022/09/09 05:55:31;;;;;;;9.55;2.42;;;;;;;18.35;86.58;100630.31;5070896;28;20020;-69
2022/09/09 05:57:56;;;;;;;5.82;2.75;;;;;;;18.33;87.48;100629.59;5089829;28;20020;-71
2022/09/09 06:00:22;;;;;;;8.77;2.67;;;;;;;18.51;85.97;100636.25;5069808;28;20024;-70
2022/09/09 06:02:52;;;;;;;9.07;3.00;;;;;;;18.35;86.19;100628.50;5089272;28;20031;-65
2022/09/09 06:05:18;;;;;;;7.57;2.50;;;;;;;18.55;86.31;100627.06;5089188;28;20024;-72
2022/09/09 06:07:44;;;;;;;6.57;2.60;;;;;;;18.67;85.64;100622.69;5089763;28;20436;-70
2022/09/09 06:10:10;;;;;;;6.95;2.10;;;;;;;18.61;86.19;100623.16;5090031;28;20035;-72
2022/09/09 06:12:35;;;;;;;6.45;2.13;;;;;;;18.60;86.12;100632.09;5029022;28;20029;-73
2022/09/09 06:15:01;;;;;;;10.65;2.83;;;;;;;18.60;86.10;100623.25;5048775;28;20357;-70
2022/09/09 06:17:26;;;;;;;9.50;2.50;;;;;;;18.54;85.95;100635.19;5043190;28;20081;-73
2022/09/09 06:19:52;;;;;;;8.23;2.20;;;;;;;18.81;85.85;100629.69;5061777;28;20081;-67
2022/09/09 06:22:17;;;;;;;9.23;2.35;;;;;;;18.97;84.70;100636.59;5088172;28;20012;-71
2022/09/09 06:24:44;;;;;;;8.07;2.20;;;;;;;18.88;84.81;100635.47;5089289;28;20016;-73
2022/09/09 06:27:10;;;;;;;6.03;2.17;;;;;;;18.79;85.20;100630.78;5075069;28;20037;-72
2022/09/09 06:29:36;;;;;;;9.48;2.47;;;;;;;18.75;85.64;100635.47;5069166;28;20360;-71
2022/09/09 06:32:02;;;;;;;6.38;2.15;;;;;;;18.87;85.36;100632.91;5067516;28;20024;-69
2022/09/09 06:34:28;;;;;;;7.63;2.35;;;;;;;18.99;84.14;100637.31;5068730;28;20047;-71
2022/09/09 06:36:53;;;;;;;6.45;2.42;;;;;;;19.04;84.28;100637.00;5068009;28;20033;-70
2022/09/09 06:39:18;;;;;;;6.70;2.25;;;;;;;19.24;83.86;100640.06;5068517;28;20036;-70
2022/09/09 06:41:44;;;;;;;7.35;2.08;;;;;;;19.33;83.75;100644.72;5067982;28;20031;-70
2022/09/09 06:44:11;;;;;;;9.20;2.00;;;;;;;19.35;83.00;100645.44;5067001;28;20035;-70
2022/09/09 06:46:37;;;;;;;16.02;2.85;;;;;;;19.39;83.29;100638.06;5069088;28;20032;-71
2022/09/09 06:49:03;;;;;;;11.27;3.42;;;;;;;19.43;82.16;100635.03;5067201;28;20028;-67
2022/09/09 06:51:34;;;;;;;9.60;2.78;;;;;;;19.27;83.00;100637.16;5068358;28;20592;-72
2022/09/09 06:54:02;;;;;;;10.02;2.30;;;;;;;19.34;82.68;100635.72;5067638;28;20028;-67
2022/09/09 06:56:28;;;;;;;8.38;2.53;;;;;;;19.12;82.84;100636.47;5068743;28;20051;-73
2022/09/09 06:58:55;;;;;;;15.10;2.50;;;;;;;19.18;83.23;100642.19;5067895;28;20127;-67
2022/09/09 07:01:23;;;;;;;11.65;2.80;;;;;;;19.03;83.53;100632.63;5076856;28;20482;-67
2022/09/09 07:03:50;;;;;;;6.93;2.13;;;;;;;19.14;83.93;100632.72;5067327;28;20039;-66
2022/09/09 07:06:21;;;;;;;8.90;2.53;;;;;;;19.15;83.84;100634.41;5068695;28;20039;-70
2022/09/09 07:08:57;;;;;;;7.65;2.60;;;;;;;19.19;83.42;100638.56;5068153;28;20029;-67
2022/09/09 07:11:25;;;;;;;13.63;2.95;;;;;;;19.24;83.10;100632.03;5053978;28;20547;-68
2022/09/09 07:13:51;;;;;;;10.70;3.03;;;;;;;19.23;83.11;100636.50;5083716;28;20028;-70
2022/09/09 07:16:18;;;;;;;9.65;3.13;;;;;;;19.34;82.99;100643.75;5084100;28;20016;-75
2022/09/09 07:18:44;;;;;;;14.90;3.88;;;;;;;19.32;82.88;100630.50;5049966;28;20565;-73
2022/09/09 07:21:13;;;;;;;10.38;3.38;;;;;;;19.35;83.32;100642.75;5067460;28;20067;-70
2022/09/09 07:23:40;;;;;;;10.23;2.90;;;;;;;19.52;81.63;100630.81;5068335;28;20068;-67
2022/09/09 07:26:13;;;;;;;6.45;2.83;;;;;;;19.59;82.21;100633.88;5067464;28;20039;-72
2022/09/09 07:28:41;;;;;;;14.88;3.40;;;;;;;19.87;80.82;100637.09;5068163;28;20029;-68
2022/09/09 07:31:07;;;;;;;14.43;2.53;;;;;;;19.81;80.22;100626.91;5081874;28;20028;-71
2022/09/09 07:33:34;;;;;;;13.18;3.10;;;;;;;19.94;80.36;100629.47;5068865;28;20040;-71
2022/09/09 07:36:12;;;;;;;11.05;3.15;;;;;;;19.97;79.20;100637.25;5070058;28;20032;-71
2022/09/09 07:38:43;;;;;;;12.70;2.83;;;;;;;19.76;81.02;100632.59;5067346;28;20029;-70
2022/09/09 07:41:11;;;;;;;10.38;3.05;;;;;;;19.72;80.78;100640.97;5067685;28;20020;-75
2022/09/09 07:43:40;;;;;;;12.13;3.05;;;;;;;19.79;80.26;100632.38;5066259;28;20025;-70
2022/09/09 07:46:06;;;;;;;;;;;;;;;19.81;80.67;100638.44;5067435;28;20027;-71
2022/09/09 07:48:32;;;;;;;7.35;3.00;;;;;;;19.56;80.90;100634.09;5066127;28;19912;-72
2022/09/09 07:51:11;;;;;;;12.18;3.72;;;;;;;19.64;81.34;100637.06;5068096;28;20099;-73
2022/09/09 07:53:40;;;;;;;11.05;3.42;;;;;;;19.61;81.46;100647.13;5065504;28;20506;-71
2022/09/09 07:56:10;;;;;;;14.05;3.90;;;;;;;19.36;81.68;100639.16;5067844;28;20119;-69
2022/09/09 07:58:37;;;;;;;10.52;3.13;;;;;;;19.22;81.81;100642.84;5066604;28;20025;-65
2022/09/09 08:01:08;;;;;;;11.18;3.67;;;;;;;19.27;82.55;100639.81;5061565;28;20383;-71
2022/09/09 08:03:33;;;;;;;9.35;3.22;;;;;;;19.29;82.00;100643.22;5047353;28;20390;-72
2022/09/09 08:06:03;;;;;;;7.80;3.63;;;;;;;19.33;82.22;100642.03;5066418;28;20099;-68
2022/09/09 08:08:29;;;;;;;13.32;3.72;;;;;;;19.28;82.00;100647.72;5067099;28;20024;-66
2022/09/09 08:11:05;;;;;;;9.68;3.55;;;;;;;19.21;82.08;100646.47;5072415;28;20123;-74
2022/09/09 08:13:31;;;;;;;7.72;3.08;;;;;;;19.15;82.93;100647.75;5087559;28;20095;-73
2022/09/09 08:16:23;;;;;;;8.43;3.30;;;;;;;19.35;82.00;100642.75;5086921;28;20027;-72
2022/09/09 08:18:50;;;;;;;7.10;3.08;;;;;;;19.60;81.08;100640.94;5068484;28;20067;-68
2022/09/09 08:21:21;;;;;;;6.78;3.30;;;;;;;19.61;80.62;100641.78;5059864;28;20055;-69
2022/09/09 08:23:47;;;;;;;10.85;3.20;;;;;;;19.37;81.38;100646.19;5047780;28;20033;-73
2022/09/09 08:26:12;;;;;;;7.28;3.15;;;;;;;19.39;81.66;100644.22;5046092;28;20048;-70
2022/09/09 08:28:39;;;;;;;11.40;3.13;;;;;;;19.38;81.67;100647.88;5046860;28;20122;-73
2022/09/09 08:31:11;;;;;;;16.42;3.63;;;;;;;19.48;81.03;100648.06;5046638;28;20128;-66
2022/09/09 08:33:38;;;;;;;17.05;4.00;;;;;;;19.67;80.90;100643.97;5046184;28;20072;-66
2022/09/09 08:36:04;;;;;;;12.15;3.22;;;;;;;19.69;80.83;100640.22;5046788;28;20462;-67
2022/09/09 08:38:30;;;;;;;11.65;3.50;;;;;;;19.67;80.93;100642.19;5046419;28;20105;-65
2022/09/09 08:41:03;;;;;;;11.70;3.35;;;;;;;19.83;80.36;100646.34;5047413;28;20146;-65
2022/09/09 08:43:29;;;;;;;9.88;2.88;;;;;;;20.00;79.71;100649.53;5027393;28;20091;-71
2022/09/09 08:46:13;;;;;;;13.18;2.90;;;;;;;19.73;80.23;100645.34;5018385;28;20480;-66
2022/09/09 08:48:58;;;;;;;14.10;3.78;;;;;;;19.76;80.47;100654.00;5065948;28;20024;-64
2022/09/09 08:51:28;;;;;;;10.77;2.70;;;;;;;19.75;81.31;100659.44;5063407;28;20039;-64
2022/09/09 08:53:54;;;;;;;13.32;2.92;;;;;;;19.87;80.09;100655.81;5083827;28;20024;-66
2022/09/09 08:56:23;;;;;;;9.75;2.80;;;;;;;19.78;80.17;100648.53;5086647;28;20024;-66
2022/09/09 08:58:50;;;;;;;14.65;2.85;;;;;;;19.85;80.63;100655.09;5087467;28;20035;-65
2022/09/09 09:01:44;;;;;;;11.38;3.03;;;;;;;19.79;80.73;100652.88;5067105;28;20378;-66
2022/09/09 09:04:30;;;;;;;10.48;2.67;;;;;;;19.82;80.82;100655.34;5066724;28;20040;-66
2022/09/09 09:07:08;;;;;;;15.27;3.15;;;;;;;19.71;81.81;100661.50;5070293;28;20027;-67
2022/09/09 09:09:36;;;;;;;11.83;3.10;;;;;;;19.57;83.51;100654.53;5069750;28;20113;-69
2022/09/09 09:12:11;;;;;;;9.48;2.92;;;;;;;19.51;83.89;100661.16;5068300;28;20792;-67
2022/09/09 09:14:37;;;;;;;14.30;3.60;;;;;;;19.53;83.50;100659.25;5053109;28;20371;-67
2022/09/09 09:17:06;;;;;;;11.63;3.45;;;;;;;19.52;83.79;100664.69;5065608;28;20020;-67
2022/09/09 09:19:33;;;;;;;11.05;3.10;;;;;;;19.54;83.55;100660.94;5088480;28;20236;-64
2022/09/09 09:22:32;;;;;;;8.63;2.80;;;;;;;19.32;84.87;100670.56;5066637;28;20081;-68
2022/09/09 09:25:00;;;;;;;14.18;2.92;;;;;;;19.37;85.32;100669.38;5018085;28;20514;-65
2022/09/09 09:27:25;;;;;;;9.77;3.38;;;;;;;19.65;84.23;100662.81;5070425;28;20025;-65
2022/09/09 09:29:56;;;;;;;18.73;3.63;;;;;;;19.42;85.29;100660.03;5058604;28;20033;-68
2022/09/09 09:32:22;;;;;;;15.90;3.40;;;;;;;19.52;84.49;100662.88;5037329;28;20028;-66
2022/09/09 09:34:55;;;;;;;15.63;3.83;;;;;;;19.65;84.59;100665.47;5084321;28;20089;-64
2022/09/09 09:37:33;;;;;;;8.88;2.75;;;;;;;19.68;84.25;100659.03;5071866;28;20067;-66
2022/09/09 09:40:09;;;;;;;7.60;2.72;;;;;;;19.85;84.40;100652.44;5087773;28;20382;-65
2022/09/09 09:42:35;;;;;;;12.55;3.30;;;;;;;19.75;85.09;100649.59;5089482;28;20052;-64
2022/09/09 09:45:39;;;;;;;6.85;2.95;;;;;;;19.89;84.70;100653.88;5089305;28;20051;-66
2022/09/09 09:48:06;;;;;;;11.45;3.00;;;;;;;20.05;83.68;100650.91;5082335;28;20036;-66
2022/09/09 09:50:32;;;;;;;10.93;2.90;;;;;;;20.31;83.29;100648.03;5089277;28;20020;-64
2022/09/09 09:53:03;;;;;;;10.45;2.75;;;;;;;20.49;82.15;100647.56;5089070;28;20020;-65
2022/09/09 09:55:30;;;;;;;14.98;3.38;;;;;;;20.64;82.40;100644.63;5069044;28;20024;-62
2022/09/09 09:58:06;;;;;;;8.55;2.50;;;;;;;20.67;81.57;100647.91;5032437;28;20033;-65
2022/09/09 10:00:34;;;;;;;11.00;2.75;;;;;;;20.75;81.08;100647.31;5048791;28;20471;-65
2022/09/09 10:03:00;;;;;;;5.32;2.08;;;;;;;20.93;80.76;100636.97;5048098;28;20033;-63
2022/09/09 10:05:30;;;;;;;10.70;2.55;;;;;;;21.48;79.17;100639.69;5049110;28;20040;-64
2022/09/09 10:08:13;;;;;;;9.15;2.55;;;;;;;21.75;77.80;100639.22;5067010;28;20030;-64
2022/09/09 10:11:16;;;;;;;7.40;2.15;;;;;;;21.84;77.07;100637.59;5048552;28;20057;-64
2022/09/09 10:14:21;;;;;;;8.05;2.33;;;;;;;21.63;76.73;100634.88;5085098;28;20178;-66
2022/09/09 10:17:17;;;;;;;7.05;2.40;;;;;;;21.31;77.21;100644.66;5068883;28;20031;-67
2022/09/09 10:20:10;;;;;;;7.63;2.28;;;;;;;21.37;77.56;100635.25;5068054;28;20099;-68
2022/09/09 10:22:35;;;;;;;9.95;2.42;;;;;;;21.40;76.93;100640.34;5086504;28;20085;-65
2022/09/09 10:25:24;;;;;;;8.63;2.10;;;;;;;21.03;78.50;100638.88;5082983;28;20032;-67
2022/09/09 10:28:02;;;;;;;11.70;2.25;;;;;;;20.95;79.14;100640.34;5080833;28;20094;-66
2022/09/09 10:30:48;;;;;;;9.48;2.25;;;;;;;20.86;79.39;100649.09;5088829;28;20111;-71
2022/09/09 10:33:44;;;;;;;10.50;2.28;;;;;;;20.61;79.57;100647.53;5086338;28;20054;-64
2022/09/09 10:36:13;;;;;;;11.63;1.98;;;;;;;20.46;80.17;100642.44;5071168;28;20036;-68
2022/09/09 10:38:48;;;;;;;7.20;2.45;;;;;;;21.08;79.34;100648.22;5082740;28;20020;-68
2022/09/09 10:41:22;;;;;;;7.80;2.38;;;;;;;21.38;77.28;100655.69;5070524;28;20415;-64
2022/09/09 10:43:56;;;;;;;6.30;2.05;;;;;;;21.50;77.04;100646.66;5070276;28;20374;-68
2022/09/09 10:46:22;;;;;;;10.25;2.05;;;;;;;21.49;77.88;100638.72;5083530;28;20487;-67
2022/09/09 10:48:50;;;;;;;6.63;2.05;;;;;;;21.58;77.30;100632.56;5082815;28;20067;-67
2022/09/09 10:51:44;;;;;;;4.07;1.70;;;;;;;21.34;76.41;100644.38;5065066;28;20029;-67
2022/09/09 10:54:28;;;;;;;9.20;2.50;;;;;;;21.26;77.13;100638.81;5048469;28;20032;-67
2022/09/09 10:57:02;;;;;;;8.52;1.80;;;;;;;21.01;78.12;100640.84;5064170;28;20042;-64
2022/09/09 10:59:43;;;;;;;8.60;2.50;;;;;;;20.88;78.83;100644.47;5067517;28;20051;-67
2022/09/09 11:02:16;;;;;;;6.55;2.35;;;;;;;20.61;80.17;100640.38;5049292;28;20024;-64
2022/09/09 11:04:50;;;;;;;11.75;2.70;;;;;;;20.44;80.78;100645.22;5083688;28;20055;-68
2022/09/09 11:07:28;;;;;;;5.70;2.22;;;;;;;20.29;82.20;100639.28;5062407;28;20052;-66
2022/09/09 11:09:59;;;;;;;8.35;2.63;;;;;;;20.13;82.40;100642.31;5067634;28;20020;-70
2022/09/09 11:12:26;;;;;;;18.67;4.10;;;;;;;20.07;83.36;100654.34;5069554;28;20074;-66
2022/09/09 11:15:17;;;;;;;3.55;2.10;;;;;;;20.13;84.48;100636.94;5088848;28;20031;-66
2022/09/09 11:17:46;;;;;;;10.80;2.50;;;;;;;20.22;83.68;100639.91;5044596;28;20086;-65
2022/09/09 11:20:14;;;;;;;5.57;2.30;;;;;;;20.35;83.54;100640.63;5065579;28;20127;-65
2022/09/09 11:22:48;;;;;;;8.77;3.03;;;;;;;20.54;82.10;100649.88;5078123;28;20115;-65
2022/09/09 11:25:20;;;;;;;7.30;2.33;;;;;;;20.46;82.50;100645.13;5087893;28;20073;-65
2022/09/09 11:28:15;;;;;;;8.00;2.28;;;;;;;20.59;82.37;100647.69;5068889;28;20032;-62
2022/09/09 11:30:52;;;;;;;6.18;2.00;;;;;;;20.91;81.08;100657.66;5088122;28;20427;-65
2022/09/09 11:36:45;;;;;;;3.53;1.65;;;;;;;21.64;77.77;100652.69;3221014;23;20070;-67
2022/09/09 11:39:35;;;;;;;5.20;1.83;;;;;;;21.81;77.44;100644.06;5017610;28;20415;-66
2022/09/09 11:42:12;;;;;;;5.70;2.00;;;;;;;22.16;76.75;100638.50;5009267;28;20037;-67
2022/09/09 11:44:37;;;;;;;4.85;1.88;;;;;;;22.10;76.47;100645.25;5008959;28;20032;-66